sensor_id;sensor_type;location;lat;lon;timestamp;pressure;altitude;pressure_sealevel;temperature;humidity
15750;BME280;7976;52.526;13.326;2023-07-13T00:02:05;100795.38;;;21.32;59.77
15750;BME280;7976;52.526;13.326;2023-07-13T00:04:33;100793.03;;;21.27;59.84
15750;BME280;7976;52.526;13.326;2023-07-13T00:07:00;100794.28;;;21.23;60.02
15750;BME280;7976;52.526;13.326;2023-07-13T00:09:28;100789.19;;;21.20;60.30
15750;BME280;7976;52.526;13.326;2023-07-13T00:11:57;100778.78;;;21.17;60.61
15750;BME280;7976;52.526;13.326;2023-07-13T00:14:26;100792.09;;;21.17;60.68
15750;BME280;7976;52.526;13.326;2023-07-13T00:16:54;100789.56;;;21.15;60.32
15750;BME280;7976;52.526;13.326;2023-07-13T00:19:21;100800.47;;;21.12;60.93
15750;BME280;7976;52.526;13.326;2023-07-13T00:21:48;100798.06;;;21.09;60.51
15750;BME280;7976;52.526;13.326;2023-07-13T00:24:18;100790.41;;;21.05;60.73
15750;BME280;7976;52.526;13.326;2023-07-13T00:26:50;100795.03;;;21.03;60.73
15750;BME280;7976;52.526;13.326;2023-07-13T00:29:17;100806.13;;;20.97;60.71
15750;BME280;7976;52.526;13.326;2023-07-13T00:31:46;100804.69;;;20.93;61.02
15750;BME280;7976;52.526;13.326;2023-07-13T00:34:12;100808.16;;;20.93;61.51
15750;BME280;7976;52.526;13.326;2023-07-13T00:36:40;100807.34;;;20.93;61.16
15750;BME280;7976;52.526;13.326;2023-07-13T00:39:07;100799.56;;;20.90;61.39
15750;BME280;7976;52.526;13.326;2023-07-13T00:41:34;100797.03;;;20.88;61.70
15750;BME280;7976;52.526;13.326;2023-07-13T00:44:04;100794.50;;;20.87;61.84
15750;BME280;7976;52.526;13.326;2023-07-13T00:46:33;100800.69;;;20.87;61.46
15750;BME280;7976;52.526;13.326;2023-07-13T00:49:06;100794.88;;;20.82;61.50
15750;BME280;7976;52.526;13.326;2023-07-13T00:51:39;100799.47;;;20.80;62.05
15750;BME280;7976;52.526;13.326;2023-07-13T00:54:18;100794.88;;;20.82;62.03
15750;BME280;7976;52.526;13.326;2023-07-13T00:56:48;100796.69;;;20.82;62.08
15750;BME280;7976;52.526;13.326;2023-07-13T00:59:19;100791.09;;;20.85;62.09
15750;BME280;7976;52.526;13.326;2023-07-13T01:01:48;100799.00;;;20.86;62.16
15750;BME280;7976;52.526;13.326;2023-07-13T01:04:15;100800.69;;;20.87;61.75
15750;BME280;7976;52.526;13.326;2023-07-13T01:06:43;100797.28;;;20.85;61.87
15750;BME280;7976;52.526;13.326;2023-07-13T01:09:11;100802.72;;;20.84;62.02
15750;BME280;7976;52.526;13.326;2023-07-13T01:11:39;100811.91;;;20.80;62.34
15750;BME280;7976;52.526;13.326;2023-07-13T01:14:07;100806.50;;;20.81;62.55
15750;BME280;7976;52.526;13.326;2023-07-13T01:16:37;100801.19;;;20.81;62.57
15750;BME280;7976;52.526;13.326;2023-07-13T01:19:13;100806.50;;;20.81;62.43
15750;BME280;7976;52.526;13.326;2023-07-13T01:21:43;100809.16;;;20.81;62.49
15750;BME280;7976;52.526;13.326;2023-07-13T01:24:13;100811.91;;;20.80;62.45
15750;BME280;7976;52.526;13.326;2023-07-13T01:26:40;100808.06;;;20.73;62.95
15750;BME280;7976;52.526;13.326;2023-07-13T01:29:08;100818.09;;;20.80;62.71
15750;BME280;7976;52.526;13.326;2023-07-13T01:31:37;100818.81;;;20.82;62.38
15750;BME280;7976;52.526;13.326;2023-07-13T01:34:04;100817.13;;;20.81;62.88
15750;BME280;7976;52.526;13.326;2023-07-13T01:36:31;100816.41;;;20.79;62.75
15750;BME280;7976;52.526;13.326;2023-07-13T01:38:59;100803.94;;;20.80;62.87
15750;BME280;7976;52.526;13.326;2023-07-13T01:41:27;100806.59;;;20.80;62.95
15750;BME280;7976;52.526;13.326;2023-07-13T01:43:54;100803.72;;;20.83;62.71
15750;BME280;7976;52.526;13.326;2023-07-13T01:46:20;100796.69;;;20.82;63.19
15750;BME280;7976;52.526;13.326;2023-07-13T01:48:47;100802.97;;;20.81;63.24
15750;BME280;7976;52.526;13.326;2023-07-13T01:51:16;100791.34;;;20.82;63.31
15750;BME280;7976;52.526;13.326;2023-07-13T01:53:44;100796.69;;;20.82;63.40
15750;BME280;7976;52.526;13.326;2023-07-13T01:56:13;100798.38;;;20.83;63.10
15750;BME280;7976;52.526;13.326;2023-07-13T01:58:40;100793.06;;;20.83;63.31
15750;BME280;7976;52.526;13.326;2023-07-13T02:01:07;100803.84;;;20.81;63.21
15750;BME280;7976;52.526;13.326;2023-07-13T02:03:34;100806.84;;;20.77;63.42
15750;BME280;7976;52.526;13.326;2023-07-13T02:06:01;100810.47;;;20.76;63.84
15750;BME280;7976;52.526;13.326;2023-07-13T02:08:28;100807.81;;;20.76;63.49
15750;BME280;7976;52.526;13.326;2023-07-13T02:10:55;100810.00;;;20.71;63.85
15750;BME280;7976;52.526;13.326;2023-07-13T02:13:23;100805.72;;;20.68;64.33
15750;BME280;7976;52.526;13.326;2023-07-13T02:15:50;100797.75;;;20.68;64.18
15750;BME280;7976;52.526;13.326;2023-07-13T02:18:17;100798.72;;;20.67;63.92
15750;BME280;7976;52.526;13.326;2023-07-13T02:20:44;100796.06;;;20.67;64.02
15750;BME280;7976;52.526;13.326;2023-07-13T02:23:12;100813.09;;;20.65;64.53
15750;BME280;7976;52.526;13.326;2023-07-13T02:25:39;100809.75;;;20.63;64.74
15750;BME280;7976;52.526;13.326;2023-07-13T02:28:06;100802.94;;;20.59;64.53
15750;BME280;7976;52.526;13.326;2023-07-13T02:30:34;100795.34;;;20.54;64.75
15750;BME280;7976;52.526;13.326;2023-07-13T02:33:02;100786.63;;;20.52;64.66
15750;BME280;7976;52.526;13.326;2023-07-13T02:35:28;100786.75;;;20.51;64.72
15750;BME280;7976;52.526;13.326;2023-07-13T02:37:58;100781.56;;;20.49;64.29
15750;BME280;7976;52.526;13.326;2023-07-13T02:40:25;100779.00;;;20.48;64.56
15750;BME280;7976;52.526;13.326;2023-07-13T02:42:52;100783.59;;;20.46;64.53
15750;BME280;7976;52.526;13.326;2023-07-13T02:45:18;100789.75;;;20.46;64.97
15750;BME280;7976;52.526;13.326;2023-07-13T02:47:47;100798.69;;;20.45;65.00
15750;BME280;7976;52.526;13.326;2023-07-13T02:50:13;100805.94;;;20.43;64.94
15750;BME280;7976;52.526;13.326;2023-07-13T02:52:40;100803.28;;;20.43;65.03
15750;BME280;7976;52.526;13.326;2023-07-13T02:55:08;100797.34;;;20.40;64.87
15750;BME280;7976;52.526;13.326;2023-07-13T02:57:36;100806.78;;;20.33;64.68
15750;BME280;7976;52.526;13.326;2023-07-13T03:00:05;100811.59;;;20.28;64.85
15750;BME280;7976;52.526;13.326;2023-07-13T03:02:34;100821.63;;;20.24;65.11
15750;BME280;7976;52.526;13.326;2023-07-13T03:05:04;100827.06;;;20.23;65.04
15750;BME280;7976;52.526;13.326;2023-07-13T03:07:31;100829.91;;;20.20;65.15
15750;BME280;7976;52.526;13.326;2023-07-13T03:09:58;100843.34;;;20.18;65.61
15750;BME280;7976;52.526;13.326;2023-07-13T03:12:33;100839.94;;;20.16;65.55
15750;BME280;7976;52.526;13.326;2023-07-13T03:15:03;100837.38;;;20.15;66.05
15750;BME280;7976;52.526;13.326;2023-07-13T03:17:32;100834.31;;;20.08;65.92
15750;BME280;7976;52.526;13.326;2023-07-13T03:19:59;100842.53;;;20.05;66.35
15750;BME280;7976;52.526;13.326;2023-07-13T03:22:27;100842.66;;;20.04;66.49
15750;BME280;7976;52.526;13.326;2023-07-13T03:24:55;100846.16;;;20.04;66.65
15750;BME280;7976;52.526;13.326;2023-07-13T03:27:22;100850.63;;;20.04;66.77
15750;BME280;7976;52.526;13.326;2023-07-13T03:29:49;100849.88;;;20.02;67.07
15750;BME280;7976;52.526;13.326;2023-07-13T03:32:17;100857.97;;;20.00;66.90
15750;BME280;7976;52.526;13.326;2023-07-13T03:34:44;100852.78;;;19.98;67.07
15750;BME280;7976;52.526;13.326;2023-07-13T03:37:12;100858.09;;;19.98;67.14
15750;BME280;7976;52.526;13.326;2023-07-13T03:39:41;100855.78;;;19.94;67.51
15750;BME280;7976;52.526;13.326;2023-07-13T03:42:08;100868.31;;;19.92;67.70
15750;BME280;7976;52.526;13.326;2023-07-13T03:44:35;100864.19;;;19.88;67.76
15750;BME280;7976;52.526;13.326;2023-07-13T03:47:04;100866.84;;;19.88;67.85
15750;BME280;7976;52.526;13.326;2023-07-13T03:49:31;100865.28;;;19.85;67.80
15750;BME280;7976;52.526;13.326;2023-07-13T03:51:58;100871.53;;;19.84;68.29
15750;BME280;7976;52.526;13.326;2023-07-13T03:54:25;100868.03;;;19.84;68.40
15750;BME280;7976;52.526;13.326;2023-07-13T03:56:54;100868.16;;;19.82;68.37
15750;BME280;7976;52.526;13.326;2023-07-13T03:59:21;100865.06;;;19.76;68.77
15750;BME280;7976;52.526;13.326;2023-07-13T04:01:48;100869.78;;;19.72;68.81
15750;BME280;7976;52.526;13.326;2023-07-13T04:04:15;100863.50;;;19.73;68.54
15750;BME280;7976;52.526;13.326;2023-07-13T04:06:42;100876.78;;;19.73;68.88
15750;BME280;7976;52.526;13.326;2023-07-13T04:09:11;100872.88;;;19.66;68.74
15750;BME280;7976;52.526;13.326;2023-07-13T04:11:38;100860.34;;;19.68;68.89
15750;BME280;7976;52.526;13.326;2023-07-13T04:14:07;100865.66;;;19.68;68.96
15750;BME280;7976;52.526;13.326;2023-07-13T04:16:34;100873.50;;;19.70;69.03
15750;BME280;7976;52.526;13.326;2023-07-13T04:19:01;100873.50;;;19.70;69.00
15750;BME280;7976;52.526;13.326;2023-07-13T04:21:29;100871.72;;;19.70;68.80
15750;BME280;7976;52.526;13.326;2023-07-13T04:23:57;100873.63;;;19.68;69.07
15750;BME280;7976;52.526;13.326;2023-07-13T04:26:24;100880.84;;;19.66;68.85
15750;BME280;7976;52.526;13.326;2023-07-13T04:28:51;100876.50;;;19.65;69.08
15750;BME280;7976;52.526;13.326;2023-07-13T04:31:20;100877.56;;;19.63;69.16
15750;BME280;7976;52.526;13.326;2023-07-13T04:33:47;100881.31;;;19.60;69.58
15750;BME280;7976;52.526;13.326;2023-07-13T04:36:15;100884.47;;;19.65;69.63
15750;BME280;7976;52.526;13.326;2023-07-13T04:38:43;100885.81;;;19.71;69.21
15750;BME280;7976;52.526;13.326;2023-07-13T04:41:10;100895.38;;;19.73;69.50
15750;BME280;7976;52.526;13.326;2023-07-13T04:43:37;100898.31;;;19.81;69.39
15750;BME280;7976;52.526;13.326;2023-07-13T04:46:06;100905.00;;;19.87;68.95
15750;BME280;7976;52.526;13.326;2023-07-13T04:48:34;100898.59;;;19.89;68.98
15750;BME280;7976;52.526;13.326;2023-07-13T04:51:03;100900.84;;;19.95;68.94
15750;BME280;7976;52.526;13.326;2023-07-13T04:53:30;100898.06;;;19.97;68.77
15750;BME280;7976;52.526;13.326;2023-07-13T04:55:58;100900.38;;;20.02;68.53
15750;BME280;7976;52.526;13.326;2023-07-13T04:58:25;100901.84;;;20.06;68.53
15750;BME280;7976;52.526;13.326;2023-07-13T05:00:53;100900.03;;;20.06;68.56
15750;BME280;7976;52.526;13.326;2023-07-13T05:03:20;100898.22;;;20.07;68.72
15750;BME280;7976;52.526;13.326;2023-07-13T05:05:57;100901.38;;;20.12;68.60
15750;BME280;7976;52.526;13.326;2023-07-13T05:08:24;100903.09;;;20.13;68.64
15750;BME280;7976;52.526;13.326;2023-07-13T05:10:52;100900.25;;;20.16;68.81
15750;BME280;7976;52.526;13.326;2023-07-13T05:13:20;100915.84;;;20.20;68.63
15750;BME280;7976;52.526;13.326;2023-07-13T05:15:56;100921.16;;;20.20;68.91
15750;BME280;7976;52.526;13.326;2023-07-13T05:18:23;100908.50;;;20.24;68.57
15750;BME280;7976;52.526;13.326;2023-07-13T05:21:01;100903.56;;;20.30;68.07
15750;BME280;7976;52.526;13.326;2023-07-13T05:23:29;100910.00;;;20.39;68.13
15750;BME280;7976;52.526;13.326;2023-07-13T05:25:56;100911.50;;;20.43;68.20
15750;BME280;7976;52.526;13.326;2023-07-13T05:28:23;100913.78;;;20.47;67.85
15750;BME280;7976;52.526;13.326;2023-07-13T05:30:50;100916.97;;;20.52;67.86
15750;BME280;7976;52.526;13.326;2023-07-13T05:33:17;100914.06;;;20.55;67.75
15750;BME280;7976;52.526;13.326;2023-07-13T05:35:44;100915.41;;;20.61;67.25
15750;BME280;7976;52.526;13.326;2023-07-13T05:38:12;100925.34;;;20.70;67.51
15750;BME280;7976;52.526;13.326;2023-07-13T05:40:42;100929.94;;;20.68;67.20
15750;BME280;7976;52.526;13.326;2023-07-13T05:43:09;100919.53;;;20.65;67.26
15750;BME280;7976;52.526;13.326;2023-07-13T05:45:36;100924.97;;;20.63;67.47
15750;BME280;7976;52.526;13.326;2023-07-13T05:48:03;100918.69;;;20.64;67.38
15750;BME280;7976;52.526;13.326;2023-07-13T05:50:30;100923.78;;;20.67;67.05
15750;BME280;7976;52.526;13.326;2023-07-13T05:52:57;100927.91;;;20.71;67.29
15750;BME280;7976;52.526;13.326;2023-07-13T05:55:25;100929.25;;;20.77;67.31
15750;BME280;7976;52.526;13.326;2023-07-13T05:57:52;100926.81;;;20.85;67.06
15750;BME280;7976;52.526;13.326;2023-07-13T06:00:19;100928.78;;;20.94;66.81
15750;BME280;7976;52.526;13.326;2023-07-13T06:02:46;100931.50;;;21.05;66.45
15750;BME280;7976;52.526;13.326;2023-07-13T06:05:13;100922.06;;;21.12;66.21
15750;BME280;7976;52.526;13.326;2023-07-13T06:07:41;100925.59;;;21.24;66.02
15750;BME280;7976;52.526;13.326;2023-07-13T06:10:09;100926.69;;;21.32;65.93
15750;BME280;7976;52.526;13.326;2023-07-13T06:12:37;100920.16;;;21.36;65.17
15750;BME280;7976;52.526;13.326;2023-07-13T06:15:05;100918.72;;;21.43;65.18
15750;BME280;7976;52.526;13.326;2023-07-13T06:17:32;100924.28;;;21.51;64.86
15750;BME280;7976;52.526;13.326;2023-07-13T06:19:59;100920.38;;;21.55;64.59
15750;BME280;7976;52.526;13.326;2023-07-13T06:22:26;100920.16;;;21.58;64.18
15750;BME280;7976;52.526;13.326;2023-07-13T06:24:53;100915.53;;;21.60;64.32
15750;BME280;7976;52.526;13.326;2023-07-13T06:27:20;100917.38;;;21.60;64.12
15750;BME280;7976;52.526;13.326;2023-07-13T06:29:48;100918.19;;;21.60;64.17
15750;BME280;7976;52.526;13.326;2023-07-13T06:32:15;100910.94;;;21.62;64.15
15750;BME280;7976;52.526;13.326;2023-07-13T06:34:42;100918.59;;;21.67;63.93
15750;BME280;7976;52.526;13.326;2023-07-13T06:37:10;100918.06;;;21.73;63.74
15750;BME280;7976;52.526;13.326;2023-07-13T06:39:36;100915.91;;;21.78;63.83
15750;BME280;7976;52.526;13.326;2023-07-13T06:42:05;100920.75;;;21.84;63.57
15750;BME280;7976;52.526;13.326;2023-07-13T06:44:32;100919.16;;;21.92;63.41
15750;BME280;7976;52.526;13.326;2023-07-13T06:47:00;100920.22;;;22.01;63.08
15750;BME280;7976;52.526;13.326;2023-07-13T06:49:27;100924.47;;;22.03;62.62
15750;BME280;7976;52.526;13.326;2023-07-13T06:51:54;100920.81;;;22.04;62.54
15750;BME280;7976;52.526;13.326;2023-07-13T06:54:21;100916.22;;;22.06;62.49
15750;BME280;7976;52.526;13.326;2023-07-13T06:56:48;100918.63;;;22.09;62.11
15750;BME280;7976;52.526;13.326;2023-07-13T06:59:15;100921.03;;;22.12;61.70
15750;BME280;7976;52.526;13.326;2023-07-13T07:01:42;100920.78;;;22.15;61.53
15750;BME280;7976;52.526;13.326;2023-07-13T07:04:10;100913.50;;;22.17;60.97
15750;BME280;7976;52.526;13.326;2023-07-13T07:06:37;100911.19;;;22.24;60.89
15750;BME280;7976;52.526;13.326;2023-07-13T07:09:04;100915.75;;;22.33;60.52
15750;BME280;7976;52.526;13.326;2023-07-13T07:11:30;100909.66;;;22.42;60.02
15750;BME280;7976;52.526;13.326;2023-07-13T07:13:58;100910.00;;;22.49;60.15
15750;BME280;7976;52.526;13.326;2023-07-13T07:16:25;100918.97;;;22.59;59.33
15750;BME280;7976;52.526;13.326;2023-07-13T07:18:52;100912.00;;;22.67;59.26
15750;BME280;7976;52.526;13.326;2023-07-13T07:21:20;100916.69;;;22.75;59.00
15750;BME280;7976;52.526;13.326;2023-07-13T07:23:49;100919.16;;;22.87;58.72
15750;BME280;7976;52.526;13.326;2023-07-13T07:26:16;100916.09;;;22.92;59.00
15750;BME280;7976;52.526;13.326;2023-07-13T07:28:42;100924.25;;;22.90;59.20
15750;BME280;7976;52.526;13.326;2023-07-13T07:31:10;100929.00;;;22.87;58.87
15750;BME280;7976;52.526;13.326;2023-07-13T07:33:37;100930.94;;;22.85;58.50
15750;BME280;7976;52.526;13.326;2023-07-13T07:36:04;100926.72;;;22.82;58.18
15750;BME280;7976;52.526;13.326;2023-07-13T07:38:33;100927.53;;;22.83;57.96
15750;BME280;7976;52.526;13.326;2023-07-13T07:41:03;100930.09;;;22.84;58.22
15750;BME280;7976;52.526;13.326;2023-07-13T07:43:30;100934.59;;;22.84;57.82
15750;BME280;7976;52.526;13.326;2023-07-13T07:45:57;100932.63;;;22.86;57.13
15750;BME280;7976;52.526;13.326;2023-07-13T07:48:24;100932.38;;;22.89;57.28
15750;BME280;7976;52.526;13.326;2023-07-13T07:50:51;100936.59;;;22.91;57.09
15750;BME280;7976;52.526;13.326;2023-07-13T07:53:18;100935.25;;;22.97;56.61
15750;BME280;7976;52.526;13.326;2023-07-13T07:55:46;100938.63;;;22.99;56.28
15750;BME280;7976;52.526;13.326;2023-07-13T07:58:13;100936.41;;;23.04;56.26
15750;BME280;7976;52.526;13.326;2023-07-13T08:00:40;100937.00;;;23.07;55.59
15750;BME280;7976;52.526;13.326;2023-07-13T08:03:07;100936.16;;;23.07;55.80
15750;BME280;7976;52.526;13.326;2023-07-13T08:05:35;100936.00;;;23.08;55.63
15750;BME280;7976;52.526;13.326;2023-07-13T08:08:03;100938.59;;;23.19;55.52
15750;BME280;7976;52.526;13.326;2023-07-13T08:10:30;100931.88;;;23.25;54.86
15750;BME280;7976;52.526;13.326;2023-07-13T08:12:58;100934.06;;;23.31;54.96
15750;BME280;7976;52.526;13.326;2023-07-13T08:15:25;100942.09;;;23.31;55.19
15750;BME280;7976;52.526;13.326;2023-07-13T08:17:52;100927.00;;;23.30;54.86
15750;BME280;7976;52.526;13.326;2023-07-13T08:20:19;100942.78;;;23.33;55.10
15750;BME280;7976;52.526;13.326;2023-07-13T08:22:46;100946.75;;;23.38;55.41
15750;BME280;7976;52.526;13.326;2023-07-13T08:25:13;100945.66;;;23.41;55.10
15750;BME280;7976;52.526;13.326;2023-07-13T08:27:39;100942.84;;;23.42;55.07
15750;BME280;7976;52.526;13.326;2023-07-13T08:30:09;100943.94;;;23.40;54.85
15750;BME280;7976;52.526;13.326;2023-07-13T08:32:36;100943.09;;;23.39;55.40
15750;BME280;7976;52.526;13.326;2023-07-13T08:35:05;100943.88;;;23.51;54.96
15750;BME280;7976;52.526;13.326;2023-07-13T08:37:32;100956.69;;;23.57;54.53
15750;BME280;7976;52.526;13.326;2023-07-13T08:39:59;100958.13;;;23.61;54.16
15750;BME280;7976;52.526;13.326;2023-07-13T08:42:36;100957.25;;;23.61;53.53
15750;BME280;7976;52.526;13.326;2023-07-13T08:45:17;100957.47;;;23.48;53.14
15750;BME280;7976;52.526;13.326;2023-07-13T08:47:52;100955.47;;;23.40;53.04
15750;BME280;7976;52.526;13.326;2023-07-13T08:50:31;100952.50;;;23.34;52.72
15750;BME280;7976;52.526;13.326;2023-07-13T08:53:02;100961.25;;;23.36;52.86
15750;BME280;7976;52.526;13.326;2023-07-13T08:55:33;100959.69;;;23.43;53.07
15750;BME280;7976;52.526;13.326;2023-07-13T08:58:09;100963.56;;;23.59;52.35
15750;BME280;7976;52.526;13.326;2023-07-13T09:00:48;100958.72;;;23.74;52.00
15750;BME280;7976;52.526;13.326;2023-07-13T09:03:23;100958.75;;;23.84;51.46
15750;BME280;7976;52.526;13.326;2023-07-13T09:05:55;100957.53;;;23.97;51.31
15750;BME280;7976;52.526;13.326;2023-07-13T09:08:46;100965.31;;;24.10;50.99
15750;BME280;7976;52.526;13.326;2023-07-13T09:11:38;100966.75;;;24.14;51.32
15750;BME280;7976;52.526;13.326;2023-07-13T09:14:35;100962.97;;;24.16;51.05
15750;BME280;7976;52.526;13.326;2023-07-13T09:17:08;100956.19;;;24.22;50.54
15750;BME280;7976;52.526;13.326;2023-07-13T09:19:37;100962.53;;;24.30;50.21
15750;BME280;7976;52.526;13.326;2023-07-13T09:22:14;100957.03;;;24.32;49.49
15750;BME280;7976;52.526;13.326;2023-07-13T09:24:57;100947.47;;;24.29;49.06
15750;BME280;7976;52.526;13.326;2023-07-13T09:27:31;100945.94;;;24.36;49.03
15750;BME280;7976;52.526;13.326;2023-07-13T09:30:19;100956.34;;;24.49;48.77
15750;BME280;7976;52.526;13.326;2023-07-13T09:32:53;100950.44;;;24.64;49.23
15750;BME280;7976;52.526;13.326;2023-07-13T09:35:25;100958.34;;;24.75;49.00
15750;BME280;7976;52.526;13.326;2023-07-13T09:38:01;100956.50;;;24.86;48.09
15750;BME280;7976;52.526;13.326;2023-07-13T09:40:40;100955.81;;;24.84;47.92
15750;BME280;7976;52.526;13.326;2023-07-13T09:43:13;100959.47;;;24.83;47.45
15750;BME280;7976;52.526;13.326;2023-07-13T09:45:40;100954.84;;;24.85;47.15
15750;BME280;7976;52.526;13.326;2023-07-13T09:48:16;100970.31;;;24.91;46.33
15750;BME280;7976;52.526;13.326;2023-07-13T09:50:44;100959.31;;;24.94;46.54
15750;BME280;7976;52.526;13.326;2023-07-13T09:53:13;100961.72;;;24.97;46.57
15750;BME280;7976;52.526;13.326;2023-07-13T09:55:44;100962.00;;;25.03;46.72
15750;BME280;7976;52.526;13.326;2023-07-13T09:58:15;100952.25;;;25.12;45.97
15750;BME280;7976;52.526;13.326;2023-07-13T10:00:54;100941.38;;;25.13;46.51
15750;BME280;7976;52.526;13.326;2023-07-13T10:03:25;100945.03;;;25.22;46.14
15750;BME280;7976;52.526;13.326;2023-07-13T10:05:53;100952.31;;;25.29;46.54
15750;BME280;7976;52.526;13.326;2023-07-13T10:08:26;100945.28;;;25.38;45.89
15750;BME280;7976;52.526;13.326;2023-07-13T10:10:58;100946.69;;;25.42;45.22
15750;BME280;7976;52.526;13.326;2023-07-13T10:13:36;100940.28;;;25.52;45.39
15750;BME280;7976;52.526;13.326;2023-07-13T10:16:04;100958.72;;;25.65;45.16
15750;BME280;7976;52.526;13.326;2023-07-13T10:18:43;100944.56;;;25.72;44.86
15750;BME280;7976;52.526;13.326;2023-07-13T10:21:15;100944.28;;;25.75;45.11
15750;BME280;7976;52.526;13.326;2023-07-13T10:23:44;100936.28;;;25.66;44.95
15750;BME280;7976;52.526;13.326;2023-07-13T10:26:19;100950.22;;;25.69;45.51
15750;BME280;7976;52.526;13.326;2023-07-13T10:28:52;100949.09;;;25.72;45.36
15750;BME280;7976;52.526;13.326;2023-07-13T10:31:22;100950.16;;;25.79;45.09
15750;BME280;7976;52.526;13.326;2023-07-13T10:33:51;100950.47;;;25.76;44.08
15750;BME280;7976;52.526;13.326;2023-07-13T10:36:31;100955.13;;;25.74;44.01
15750;BME280;7976;52.526;13.326;2023-07-13T10:39:04;100940.13;;;25.54;44.40
15750;BME280;7976;52.526;13.326;2023-07-13T10:41:38;100953.44;;;25.46;44.70
15750;BME280;7976;52.526;13.326;2023-07-13T10:44:15;100947.50;;;25.52;44.09
15750;BME280;7976;52.526;13.326;2023-07-13T10:46:44;100958.09;;;25.44;44.29
15750;BME280;7976;52.526;13.326;2023-07-13T10:49:13;100954.84;;;25.31;44.39
15750;BME280;7976;52.526;13.326;2023-07-13T10:51:41;100950.81;;;25.17;44.73
15750;BME280;7976;52.526;13.326;2023-07-13T10:54:17;100948.44;;;25.05;45.25
15750;BME280;7976;52.526;13.326;2023-07-13T10:56:53;100940.81;;;25.10;44.78
15750;BME280;7976;52.526;13.326;2023-07-13T10:59:34;100937.84;;;25.13;45.08
15750;BME280;7976;52.526;13.326;2023-07-13T11:02:14;100942.22;;;25.23;44.94
15750;BME280;7976;52.526;13.326;2023-07-13T11:04:49;100941.03;;;25.35;44.46
15750;BME280;7976;52.526;13.326;2023-07-13T11:07:23;100941.53;;;25.58;44.20
15750;BME280;7976;52.526;13.326;2023-07-13T11:09:52;100954.88;;;25.77;43.48
15750;BME280;7976;52.526;13.326;2023-07-13T11:12:49;100944.31;;;25.93;43.42
15750;BME280;7976;52.526;13.326;2023-07-13T11:15:43;100951.75;;;25.99;42.90
15750;BME280;7976;52.526;13.326;2023-07-13T11:18:22;100944.63;;;25.90;42.18
15750;BME280;7976;52.526;13.326;2023-07-13T11:20:52;100946.59;;;25.88;42.16
15750;BME280;7976;52.526;13.326;2023-07-13T11:23:43;100944.38;;;25.83;42.96
15750;BME280;7976;52.526;13.326;2023-07-13T11:26:40;100942.41;;;25.85;42.35
15750;BME280;7976;52.526;13.326;2023-07-13T11:29:12;100936.41;;;25.91;42.92
15750;BME280;7976;52.526;13.326;2023-07-13T11:31:52;100945.84;;;26.05;41.45
15750;BME280;7976;52.526;13.326;2023-07-13T11:34:28;100948.06;;;26.10;40.80
15750;BME280;7976;52.526;13.326;2023-07-13T11:36:59;100937.00;;;26.13;40.14
15750;BME280;7976;52.526;13.326;2023-07-13T11:39:31;100943.16;;;26.05;39.85
15750;BME280;7976;52.526;13.326;2023-07-13T11:42:03;100939.66;;;25.95;38.95
15750;BME280;7976;52.526;13.326;2023-07-13T11:44:34;100942.63;;;25.92;39.00
15750;BME280;7976;52.526;13.326;2023-07-13T11:47:11;100942.72;;;26.00;39.07
15750;BME280;7976;52.526;13.326;2023-07-13T11:49:44;100944.53;;;26.09;39.91
15750;BME280;7976;52.526;13.326;2023-07-13T11:52:17;100948.28;;;26.16;39.99
15750;BME280;7976;52.526;13.326;2023-07-13T11:54:50;100933.91;;;26.17;40.14
15750;BME280;7976;52.526;13.326;2023-07-13T11:57:25;100949.53;;;26.22;39.97
15750;BME280;7976;52.526;13.326;2023-07-13T11:59:55;100947.41;;;26.25;40.20
15750;BME280;7976;52.526;13.326;2023-07-13T12:02:29;100944.41;;;26.28;39.87
15750;BME280;7976;52.526;13.326;2023-07-13T12:04:58;100937.34;;;26.27;39.77
15750;BME280;7976;52.526;13.326;2023-07-13T12:07:30;100942.56;;;26.29;39.93
15750;BME280;7976;52.526;13.326;2023-07-13T12:10:01;100938.41;;;26.34;40.18
15750;BME280;7976;52.526;13.326;2023-07-13T12:12:29;100938.72;;;26.31;40.27
15750;BME280;7976;52.526;13.326;2023-07-13T12:14:56;100927.81;;;26.33;40.44
15750;BME280;7976;52.526;13.326;2023-07-13T12:17:25;100934.34;;;26.30;40.68
15750;BME280;7976;52.526;13.326;2023-07-13T12:19:53;100928.13;;;26.30;40.41
15750;BME280;7976;52.526;13.326;2023-07-13T12:22:20;100940.59;;;26.31;41.04
15750;BME280;7976;52.526;13.326;2023-07-13T12:24:52;100942.78;;;26.35;40.70
15750;BME280;7976;52.526;13.326;2023-07-13T12:27:24;100937.66;;;26.42;40.17
15750;BME280;7976;52.526;13.326;2023-07-13T12:29:58;100939.31;;;26.43;40.40
15750;BME280;7976;52.526;13.326;2023-07-13T12:32:26;100944.41;;;26.46;39.85
15750;BME280;7976;52.526;13.326;2023-07-13T12:35:06;100944.41;;;26.46;39.49
15750;BME280;7976;52.526;13.326;2023-07-13T12:37:35;100937.56;;;26.51;39.36
15750;BME280;7976;52.526;13.326;2023-07-13T12:40:04;100935.09;;;26.58;38.81
15750;BME280;7976;52.526;13.326;2023-07-13T12:42:39;100930.97;;;26.63;38.87
15750;BME280;7976;52.526;13.326;2023-07-13T12:45:19;100937.44;;;26.70;38.11
15750;BME280;7976;52.526;13.326;2023-07-13T12:47:49;100937.44;;;26.70;38.07
15750;BME280;7976;52.526;13.326;2023-07-13T12:50:20;100930.44;;;26.60;38.55
15750;BME280;7976;52.526;13.326;2023-07-13T12:52:51;100932.41;;;26.58;38.38
15750;BME280;7976;52.526;13.326;2023-07-13T12:55:22;100938.56;;;26.50;38.49
15750;BME280;7976;52.526;13.326;2023-07-13T12:57:52;100935.81;;;26.42;38.32
15750;BME280;7976;52.526;13.326;2023-07-13T13:00:28;100931.28;;;26.25;38.92
15750;BME280;7976;52.526;13.326;2023-07-13T13:03:04;100937.00;;;26.13;39.06
15750;BME280;7976;52.526;13.326;2023-07-13T13:05:32;100941.31;;;26.06;39.26